Plummers Landing, Kentucky
Current Conditions -  °F | °C
As of 12:50 PM on Sunday 21 Dec 2014 (Local Time) from KSYM Reporting Station
Clear Clear  
Wind Chill: 34°   Ceiling: Unl
Heat Index: 37°   Visibility: 10mi
Dew Point: 27°   Wind: 5mph
Humidity: 65%   Direction: NA
Pressure: 30.24"   Gusts: 12mph
Location:  38.32°N, 83.56°W
Report Text: KSYM 211750Z AUTO VRB04G10KT 10SM CLR 03/M03 A3024 RMK AO2
Loading
Personal Weather Stations






























Interactive Weather Map New forecast layout! Learn more

10-Day Weather Forecast

Advertisements
Track Severe Weather on mobile